createdAt,value
2019-05-18T00:02:10.997Z,17.40
2019-05-18T00:04:45.726Z,17.10
2019-05-18T00:07:20.454Z,16.82
2019-05-18T00:09:55.214Z,17.52
2019-05-18T00:12:30.014Z,18.55
2019-05-18T00:15:06.887Z,18.60
2019-05-18T00:17:41.671Z,18.10
2019-05-18T00:20:16.431Z,18.07
2019-05-18T00:22:51.167Z,19.05
2019-05-18T00:25:25.867Z,19.25
2019-05-18T00:28:00.669Z,18.80
2019-05-18T00:30:35.436Z,17.52
2019-05-18T00:33:10.157Z,18.80
2019-05-18T00:35:44.854Z,17.65
2019-05-18T00:38:19.649Z,17.30
2019-05-18T00:40:54.415Z,20.17
2019-05-18T00:43:29.214Z,27.15
2019-05-18T00:46:05.755Z,19.52
2019-05-18T00:48:40.556Z,20.55
2019-05-18T00:51:15.398Z,20.85
2019-05-18T00:53:50.150Z,19.35
2019-05-18T00:56:24.888Z,20.25
2019-05-18T00:58:59.685Z,21.27
2019-05-18T01:01:34.379Z,17.35
2019-05-18T01:04:09.104Z,21.33
2019-05-18T01:06:43.869Z,21.73
2019-05-18T01:09:18.674Z,23.67
2019-05-18T01:11:53.444Z,22.77
2019-05-18T01:14:28.172Z,21.48
2019-05-18T01:17:02.881Z,21.25
2019-05-18T01:19:37.672Z,20.08
2019-05-18T01:22:12.442Z,21.40
2019-05-18T01:24:47.325Z,20.92
2019-05-18T01:27:22.118Z,20.32
2019-05-18T01:29:56.845Z,19.87
2019-05-18T01:32:31.552Z,19.70
2019-05-18T01:35:08.121Z,19.37
2019-05-18T01:37:42.805Z,18.90
2019-05-18T01:40:17.706Z,20.77
2019-05-18T01:42:52.441Z,18.82
2019-05-18T01:45:27.222Z,19.65
2019-05-18T01:48:13.161Z,19.65
2019-05-18T01:50:39.262Z,19.50
2019-05-18T01:53:14.030Z,19.17
2019-05-18T01:55:48.829Z,18.67
2019-05-18T01:58:23.525Z,19.77
2019-05-18T02:00:58.338Z,18.50
2019-05-18T02:03:33.094Z,19.75
2019-05-18T02:06:07.900Z,19.30
2019-05-18T02:08:42.664Z,19.50
2019-05-18T02:11:17.325Z,19.48
2019-05-18T02:13:52.082Z,19.10
2019-05-18T02:16:26.820Z,18.55
2019-05-18T02:19:01.592Z,19.15
2019-05-18T02:21:36.398Z,19.48
2019-05-18T02:24:11.190Z,20.80
2019-05-18T02:26:45.987Z,20.48
2019-05-18T02:29:20.756Z,19.23
2019-05-18T02:31:55.484Z,18.75
2019-05-18T02:34:30.246Z,18.87
2019-05-18T02:37:05.058Z,18.65
2019-05-18T02:39:39.743Z,19.57
2019-05-18T02:42:14.542Z,20.23
2019-05-18T02:44:49.319Z,19.67
2019-05-18T02:47:24.124Z,19.98
2019-05-18T02:49:58.893Z,19.17
2019-05-18T02:52:33.695Z,19.12
2019-05-18T02:55:08.860Z,20.12
2019-05-18T02:57:43.662Z,18.85
2019-05-18T03:00:18.527Z,19.20
2019-05-18T03:02:53.388Z,18.87
2019-05-18T03:05:28.179Z,18.80
2019-05-18T03:08:03.010Z,19.05
2019-05-18T03:10:37.763Z,18.20
2019-05-18T03:13:12.566Z,18.95
2019-05-18T03:15:47.289Z,18.40
2019-05-18T03:18:22.055Z,20.95
2019-05-18T03:20:56.824Z,18.55
2019-05-18T03:23:31.666Z,18.15
2019-05-18T03:26:06.407Z,17.82
2019-05-18T03:28:41.214Z,18.05
2019-05-18T03:31:15.919Z,18.30
2019-05-18T03:33:50.651Z,18.45
2019-05-18T03:36:25.425Z,21.02
2019-05-18T03:39:00.150Z,21.15
2019-05-18T03:41:34.929Z,20.17
2019-05-18T03:44:09.663Z,23.22
2019-05-18T03:46:44.426Z,19.45
2019-05-18T03:49:27.054Z,18.37
2019-05-18T03:51:55.550Z,17.17
2019-05-18T03:54:30.608Z,17.77
2019-05-18T03:57:05.259Z,18.48
2019-05-18T03:59:39.962Z,19.15
2019-05-18T04:02:14.654Z,19.87
2019-05-18T04:04:49.390Z,19.62
2019-05-18T04:07:24.015Z,19.02
2019-05-18T04:09:58.816Z,19.52
2019-05-18T04:12:34.092Z,19.65
2019-05-18T04:15:09.866Z,18.87
2019-05-18T04:17:44.499Z,18.67
2019-05-18T04:20:19.306Z,19.77
2019-05-18T04:22:54.080Z,18.87
2019-05-18T04:25:28.882Z,19.77
2019-05-18T04:28:03.650Z,20.50
2019-05-18T04:30:38.316Z,20.27
2019-05-18T04:33:13.028Z,21.40
2019-05-18T04:35:47.749Z,19.92
2019-05-18T04:38:22.440Z,18.67
2019-05-18T04:40:57.240Z,18.75
2019-05-18T04:43:32.015Z,16.62
2019-05-18T04:46:06.810Z,16.73
2019-05-18T04:48:41.596Z,16.82
2019-05-18T04:51:16.330Z,17.30
2019-05-18T04:53:51.096Z,17.50
2019-05-18T04:56:25.833Z,16.67
2019-05-18T04:59:00.447Z,17.05
2019-05-18T05:01:35.214Z,16.37
2019-05-18T05:04:09.894Z,18.32
2019-05-18T05:06:44.631Z,18.42
2019-05-18T05:09:19.569Z,18.42
2019-05-18T05:11:54.295Z,18.70
2019-05-18T05:14:28.930Z,19.05
2019-05-18T05:17:03.668Z,19.75
2019-05-18T05:19:38.371Z,19.70
2019-05-18T05:22:13.166Z,20.02
2019-05-18T05:24:47.867Z,19.10
2019-05-18T05:27:22.687Z,18.73
2019-05-18T05:29:57.339Z,18.23
2019-05-18T05:32:31.964Z,18.17
2019-05-18T05:35:07.124Z,18.87
2019-05-18T05:37:42.027Z,18.82
2019-05-18T05:40:17.670Z,19.00
2019-05-18T05:42:52.429Z,19.60
2019-05-18T05:45:27.194Z,19.05
2019-05-18T05:48:01.973Z,19.62
2019-05-18T05:50:36.885Z,19.27
2019-05-18T05:53:11.748Z,14.28
2019-05-18T05:55:46.520Z,18.55
2019-05-18T05:58:21.245Z,17.67
2019-05-18T06:00:55.941Z,17.67
2019-05-18T06:03:30.671Z,17.12
2019-05-18T06:06:05.367Z,16.30
2019-05-18T06:08:40.197Z,17.23
2019-05-18T06:11:14.959Z,14.80
2019-05-18T06:13:49.621Z,13.83
2019-05-18T06:16:24.388Z,12.50
2019-05-18T06:18:59.123Z,13.88
2019-05-18T06:21:33.888Z,13.53
2019-05-18T06:24:08.690Z,12.93
2019-05-18T06:26:43.418Z,11.75
2019-05-18T06:29:18.208Z,10.95
2019-05-18T06:31:52.923Z,11.93
2019-05-18T06:34:27.643Z,10.03
2019-05-18T06:37:02.339Z,11.48
2019-05-18T06:39:37.269Z,10.88
2019-05-18T06:42:11.850Z,10.70
2019-05-18T06:44:46.655Z,10.20
2019-05-18T06:47:21.308Z,10.13
2019-05-18T06:49:56.003Z,9.25
2019-05-18T06:52:30.713Z,9.50
2019-05-18T06:55:06.718Z,9.18
2019-05-18T06:57:41.991Z,9.75
2019-05-18T07:00:16.879Z,9.40
2019-05-18T07:02:51.666Z,9.45
2019-05-18T07:05:26.394Z,8.93
2019-05-18T07:08:01.164Z,8.45
2019-05-18T07:10:35.868Z,8.85
2019-05-18T07:13:10.563Z,8.08
2019-05-18T07:15:45.349Z,8.05
2019-05-18T07:18:19.967Z,8.33
2019-05-18T07:20:54.618Z,7.95
2019-05-18T07:23:29.380Z,8.73
2019-05-18T07:26:04.173Z,8.95
2019-05-18T07:28:38.936Z,9.08
2019-05-18T07:31:13.662Z,8.58
2019-05-18T07:33:48.350Z,9.65
2019-05-18T07:36:23.140Z,9.60
2019-05-18T07:38:57.767Z,9.48
2019-05-18T07:41:45.895Z,9.10
2019-05-18T07:44:08.943Z,10.28
2019-05-18T07:46:43.743Z,10.98
2019-05-18T07:49:18.452Z,9.83
2019-05-18T07:51:58.783Z,10.03
2019-05-18T07:54:33.419Z,9.05
2019-05-18T07:57:08.223Z,10.05
2019-05-18T07:59:43.036Z,9.90
2019-05-18T08:02:17.653Z,9.95
2019-05-18T08:04:52.451Z,10.30
2019-05-18T08:07:27.259Z,10.63
2019-05-18T08:10:01.894Z,9.23
2019-05-18T08:12:36.671Z,9.20
2019-05-18T08:15:11.726Z,9.20
2019-05-18T08:17:46.386Z,9.30
2019-05-18T08:20:21.174Z,8.50
2019-05-18T08:22:55.966Z,9.30
2019-05-18T08:25:30.664Z,9.00
2019-05-18T08:28:05.474Z,9.10
2019-05-18T08:30:40.233Z,8.53
2019-05-18T08:33:15.052Z,9.08
2019-05-18T08:35:49.672Z,9.28
2019-05-18T08:38:24.371Z,9.58
2019-05-18T08:40:59.034Z,9.25
2019-05-18T08:43:33.834Z,9.30
2019-05-18T08:46:08.547Z,8.78
2019-05-18T08:48:43.302Z,9.20
2019-05-18T08:51:18.066Z,8.28
2019-05-18T08:53:52.892Z,9.28
2019-05-18T08:56:27.640Z,9.58
2019-05-18T08:59:02.808Z,9.35
2019-05-18T09:01:37.567Z,9.80
2019-05-18T09:04:12.364Z,10.28
2019-05-18T09:06:46.995Z,9.65
2019-05-18T09:09:21.642Z,9.58
2019-05-18T09:11:56.360Z,10.40
2019-05-18T09:14:31.126Z,9.98
2019-05-18T09:17:05.822Z,9.90
2019-05-18T09:19:40.614Z,9.00
2019-05-18T09:22:22.839Z,8.80
2019-05-18T09:24:51.787Z,8.60
2019-05-18T09:27:26.365Z,9.43
2019-05-18T09:30:01.115Z,8.58
2019-05-18T09:32:35.943Z,8.50
2019-05-18T09:35:11.301Z,8.70
2019-05-18T09:37:46.006Z,8.83
2019-05-18T09:40:20.810Z,8.88
2019-05-18T09:42:55.490Z,8.50
2019-05-18T09:45:30.794Z,7.97
2019-05-18T09:48:05.713Z,8.15
2019-05-18T09:50:40.586Z,8.13
2019-05-18T09:53:15.348Z,7.25
2019-05-18T09:55:50.176Z,7.70
2019-05-18T09:58:24.913Z,7.60
2019-05-18T10:00:59.704Z,6.95
2019-05-18T10:03:34.451Z,7.37
2019-05-18T10:06:09.272Z,8.10
2019-05-18T10:08:44.004Z,8.20
2019-05-18T10:11:18.800Z,8.13
2019-05-18T10:13:53.561Z,8.30
2019-05-18T10:16:28.358Z,7.95
2019-05-18T10:19:03.003Z,7.58
2019-05-18T10:21:37.833Z,8.35
2019-05-18T10:24:12.614Z,7.37
2019-05-18T10:26:47.327Z,6.97
2019-05-18T10:29:21.987Z,7.03
2019-05-18T10:31:56.714Z,6.58
2019-05-18T10:34:31.473Z,7.10
2019-05-18T10:37:06.259Z,7.12
2019-05-18T10:39:40.976Z,7.50
2019-05-18T10:42:15.911Z,7.87
2019-05-18T10:44:50.882Z,7.17
2019-05-18T10:47:25.608Z,6.45
2019-05-18T10:50:00.329Z,6.67
2019-05-18T10:52:35.029Z,7.45
2019-05-18T10:55:10.314Z,7.42
2019-05-18T10:57:45.084Z,6.90
2019-05-18T11:00:20.546Z,7.47
2019-05-18T11:02:55.232Z,7.62
2019-05-18T11:05:30.028Z,7.75
2019-05-18T11:08:04.818Z,7.37
2019-05-18T11:10:39.575Z,7.05
2019-05-18T11:13:17.119Z,8.10
2019-05-18T11:15:50.705Z,7.30
2019-05-18T11:18:25.463Z,6.90
2019-05-18T11:21:00.250Z,8.70
2019-05-18T11:23:43.174Z,5.70
2019-05-18T11:26:11.424Z,7.10
2019-05-18T11:28:46.123Z,7.10
2019-05-18T11:31:20.922Z,6.75
2019-05-18T11:33:55.638Z,6.37
2019-05-18T11:36:30.422Z,7.85
2019-05-18T11:39:06.793Z,6.17
2019-05-18T11:41:41.587Z,6.08
2019-05-18T11:44:16.359Z,7.37
2019-05-18T11:46:51.148Z,6.90
2019-05-18T11:49:28.960Z,7.12
2019-05-18T11:52:02.267Z,6.65
2019-05-18T11:54:37.017Z,6.78
2019-05-18T11:57:11.754Z,6.28
2019-05-18T11:59:46.510Z,6.08
2019-05-18T12:02:21.252Z,4.92
2019-05-18T12:04:55.939Z,4.97
2019-05-18T12:07:30.727Z,5.20
2019-05-18T12:10:08.782Z,5.10
2019-05-18T12:12:43.585Z,4.95
2019-05-18T12:15:20.242Z,5.12
2019-05-18T12:17:55.043Z,4.80
2019-05-18T12:20:29.804Z,5.33
2019-05-18T12:23:07.982Z,4.67
2019-05-18T12:25:40.988Z,5.85
2019-05-18T12:28:15.726Z,5.40
2019-05-18T12:30:50.467Z,5.35
2019-05-18T12:33:25.209Z,4.80
2019-05-18T12:35:59.965Z,4.97
2019-05-18T12:38:34.751Z,5.15
2019-05-18T12:41:10.575Z,5.40
2019-05-18T12:43:45.381Z,4.95
2019-05-18T12:46:19.998Z,4.45
2019-05-18T12:48:54.818Z,5.60
2019-05-18T12:51:29.562Z,4.75
2019-05-18T12:54:04.356Z,4.62
2019-05-18T12:56:39.113Z,4.60
2019-05-18T12:59:13.833Z,4.50
2019-05-18T13:01:48.592Z,4.90
2019-05-18T13:04:23.325Z,3.92
2019-05-18T13:06:58.107Z,5.10
2019-05-18T13:09:32.830Z,4.58
2019-05-18T13:12:07.595Z,5.05
2019-05-18T13:14:42.382Z,5.20
2019-05-18T13:17:17.072Z,5.25
2019-05-18T13:19:51.876Z,5.37
2019-05-18T13:22:26.634Z,5.15
2019-05-18T13:25:01.279Z,4.95
2019-05-18T13:27:39.518Z,4.72
2019-05-18T13:30:13.668Z,4.90
2019-05-18T13:32:48.324Z,4.87
2019-05-18T13:35:23.078Z,4.08
2019-05-18T13:37:57.785Z,4.00
2019-05-18T13:40:32.576Z,4.12
2019-05-18T13:43:07.342Z,4.30
2019-05-18T13:45:42.131Z,4.05
2019-05-18T13:48:16.802Z,4.40
2019-05-18T13:50:51.628Z,4.17
2019-05-18T13:53:26.307Z,4.17
2019-05-18T13:56:01.098Z,4.42
2019-05-18T13:58:35.792Z,4.30
2019-05-18T14:01:10.582Z,3.90
2019-05-18T14:03:45.355Z,3.92
2019-05-18T14:06:20.179Z,4.80
2019-05-18T14:08:54.927Z,3.87
2019-05-18T14:11:29.723Z,4.30
2019-05-18T14:14:04.800Z,4.70
2019-05-18T14:16:39.447Z,4.50
2019-05-18T14:19:14.205Z,4.87
2019-05-18T14:21:48.854Z,4.12
2019-05-18T14:24:23.615Z,4.20
2019-05-18T14:26:58.434Z,4.30
2019-05-18T14:29:33.059Z,4.35
2019-05-18T14:32:10.856Z,4.50
2019-05-18T14:34:44.247Z,4.58
2019-05-18T14:37:19.403Z,4.83
2019-05-18T14:39:54.087Z,4.45
2019-05-18T14:42:28.911Z,4.72
2019-05-18T14:45:05.657Z,5.10
2019-05-18T14:47:40.321Z,4.83
2019-05-18T14:50:16.079Z,4.40
2019-05-18T14:52:50.866Z,4.90
2019-05-18T14:55:33.359Z,4.33
2019-05-18T14:58:02.085Z,5.12
2019-05-18T15:00:38.479Z,4.33
2019-05-18T15:03:13.239Z,4.70
2019-05-18T15:05:47.978Z,4.30
2019-05-18T15:08:22.999Z,4.53
2019-05-18T15:10:57.672Z,4.28
2019-05-18T15:13:32.463Z,4.40
2019-05-18T15:16:07.249Z,4.37
2019-05-18T15:18:41.981Z,4.00
2019-05-18T15:21:16.767Z,4.45
2019-05-18T15:23:51.527Z,4.37
2019-05-18T15:26:26.280Z,4.37
2019-05-18T15:29:01.073Z,4.20
2019-05-18T15:31:35.757Z,4.25
2019-05-18T15:34:10.559Z,4.58
2019-05-18T15:36:45.332Z,4.05
2019-05-18T15:39:20.154Z,4.50
2019-05-18T15:41:54.842Z,4.05
2019-05-18T15:44:29.635Z,5.92
2019-05-18T15:47:05.336Z,6.30
2019-05-18T15:49:40.137Z,4.12
2019-05-18T15:52:14.844Z,4.50
2019-05-18T15:54:49.636Z,4.67
2019-05-18T15:57:24.325Z,4.97
2019-05-18T15:59:58.981Z,4.65
2019-05-18T16:02:33.747Z,4.92
2019-05-18T16:05:09.244Z,4.45
2019-05-18T16:07:43.997Z,4.83
2019-05-18T16:10:23.142Z,4.60
2019-05-18T16:12:57.999Z,4.90
2019-05-18T16:15:33.546Z,4.73
2019-05-18T16:18:08.328Z,9.20
2019-05-18T16:20:44.625Z,6.00
2019-05-18T16:23:19.408Z,4.58
2019-05-18T16:25:54.202Z,4.72
2019-05-18T16:28:28.955Z,4.70
2019-05-18T16:31:03.757Z,4.85
2019-05-18T16:33:41.267Z,5.60
2019-05-18T16:36:15.974Z,4.72
2019-05-18T16:38:50.594Z,4.80
2019-05-18T16:41:25.461Z,4.60
2019-05-18T16:44:00.149Z,4.67
2019-05-18T16:46:34.978Z,4.70
2019-05-18T16:49:09.732Z,4.50
2019-05-18T16:51:44.449Z,4.90
2019-05-18T16:54:19.189Z,5.22
2019-05-18T16:56:53.918Z,4.75
2019-05-18T16:59:28.580Z,5.15
2019-05-18T17:02:03.348Z,4.90
2019-05-18T17:04:38.124Z,13.78
2019-05-18T17:07:12.918Z,8.25
2019-05-18T17:09:47.693Z,4.60
2019-05-18T17:12:22.351Z,5.17
2019-05-18T17:14:57.153Z,5.70
2019-05-18T17:17:35.122Z,5.17
2019-05-18T17:20:08.921Z,5.05
2019-05-18T17:22:43.766Z,5.05
2019-05-18T17:25:18.568Z,6.05
2019-05-18T17:27:53.291Z,5.05
2019-05-18T17:30:28.053Z,4.97
2019-05-18T17:33:02.844Z,5.10
2019-05-18T17:35:37.605Z,5.72
2019-05-18T17:38:12.406Z,5.37
2019-05-18T17:40:47.163Z,5.95
2019-05-18T17:43:21.919Z,5.70
2019-05-18T17:45:56.884Z,5.50
2019-05-18T17:48:31.687Z,5.97
2019-05-18T17:51:06.388Z,7.10
2019-05-18T17:53:41.142Z,7.75
2019-05-18T17:56:15.902Z,8.08
2019-05-18T17:58:50.643Z,8.13
2019-05-18T18:01:25.383Z,8.15
2019-05-18T18:04:00.103Z,8.80
2019-05-18T18:06:34.811Z,13.28
2019-05-18T18:09:09.615Z,12.82
2019-05-18T18:11:44.379Z,11.75
2019-05-18T18:14:19.119Z,11.43
2019-05-18T18:16:53.820Z,9.95
2019-05-18T18:19:28.556Z,9.18
2019-05-18T18:22:03.280Z,8.95
2019-05-18T18:24:38.130Z,8.63
2019-05-18T18:27:24.677Z,9.05
2019-05-18T18:29:49.163Z,7.40
2019-05-18T18:32:23.775Z,7.83
2019-05-18T18:34:58.389Z,8.25
2019-05-18T18:37:33.039Z,8.25
2019-05-18T18:40:08.130Z,8.95
2019-05-18T18:42:42.969Z,7.85
2019-05-18T18:45:18.362Z,7.00
2019-05-18T18:48:12.323Z,7.53
2019-05-18T18:50:47.127Z,8.20
2019-05-18T18:53:21.888Z,7.60
2019-05-18T18:55:56.614Z,7.00
2019-05-18T18:58:31.303Z,7.80
2019-05-18T19:01:06.116Z,7.53
2019-05-18T19:03:40.808Z,12.55
2019-05-18T19:06:15.645Z,13.05
2019-05-18T19:08:50.395Z,14.00
2019-05-18T19:11:25.203Z,13.13
2019-05-18T19:13:59.984Z,13.72
2019-05-18T19:16:34.727Z,11.10
2019-05-18T19:19:09.488Z,11.08
2019-05-18T19:21:44.281Z,10.48
2019-05-18T19:24:19.026Z,10.32
2019-05-18T19:26:53.835Z,10.40
2019-05-18T19:29:28.523Z,10.00
2019-05-18T19:32:03.342Z,17.25
2019-05-18T19:34:38.104Z,15.88
2019-05-18T19:37:12.908Z,13.55
2019-05-18T19:39:47.672Z,12.98
2019-05-18T19:42:22.405Z,10.13
2019-05-18T19:44:57.107Z,10.10
2019-05-18T19:47:31.826Z,9.78
2019-05-18T19:50:09.650Z,10.25
2019-05-18T19:52:44.312Z,11.63
2019-05-18T19:55:19.083Z,11.57
2019-05-18T19:57:53.889Z,11.80
2019-05-18T20:00:28.652Z,11.38
2019-05-18T20:03:03.412Z,13.55
2019-05-18T20:05:38.142Z,13.10
2019-05-18T20:08:12.957Z,12.33
2019-05-18T20:10:47.727Z,13.78
2019-05-18T20:13:22.415Z,14.53
2019-05-18T20:15:57.067Z,13.53
2019-05-18T20:18:31.872Z,13.62
2019-05-18T20:21:06.567Z,12.28
2019-05-18T20:23:41.381Z,11.40
2019-05-18T20:26:16.076Z,10.35
2019-05-18T20:28:50.809Z,12.55
2019-05-18T20:31:25.570Z,12.68
2019-05-18T20:34:00.377Z,12.43
2019-05-18T20:36:35.076Z,10.70
2019-05-18T20:39:09.831Z,9.85
2019-05-18T20:41:44.450Z,10.98
2019-05-18T20:44:19.171Z,10.85
2019-05-18T20:46:53.798Z,11.08
2019-05-18T20:49:28.605Z,11.80
2019-05-18T20:52:03.372Z,13.00
2019-05-18T20:54:38.137Z,12.90
2019-05-18T20:57:12.827Z,13.75
2019-05-18T20:59:47.560Z,14.68
2019-05-18T21:02:22.175Z,15.48
2019-05-18T21:04:56.843Z,15.30
2019-05-18T21:07:31.622Z,18.37
2019-05-18T21:10:07.432Z,20.23
2019-05-18T21:12:42.127Z,22.10
2019-05-18T21:15:17.059Z,21.73
2019-05-18T21:17:51.820Z,16.73
2019-05-18T21:20:26.622Z,12.58
2019-05-18T21:23:01.389Z,13.10
2019-05-18T21:25:36.191Z,13.78
2019-05-18T21:28:11.007Z,13.08
2019-05-18T21:30:45.774Z,12.40
2019-05-18T21:33:20.451Z,11.93
2019-05-18T21:35:55.178Z,11.75
2019-05-18T21:38:29.959Z,10.43
2019-05-18T21:41:04.715Z,10.75
2019-05-18T21:43:39.482Z,10.30
2019-05-18T21:46:14.203Z,12.03
2019-05-18T21:48:48.897Z,12.18
2019-05-18T21:51:23.558Z,12.65
2019-05-18T21:53:58.179Z,13.22
2019-05-18T21:56:32.859Z,12.40
2019-05-18T21:59:11.759Z,11.97
2019-05-18T22:01:44.132Z,16.17
2019-05-18T22:04:18.894Z,16.62
2019-05-18T22:06:53.698Z,18.67
2019-05-18T22:09:28.500Z,16.73
2019-05-18T22:12:03.352Z,16.93
2019-05-18T22:14:38.056Z,15.83
2019-05-18T22:17:12.787Z,15.93
2019-05-18T22:19:47.550Z,16.35
2019-05-18T22:22:22.220Z,16.17
2019-05-18T22:24:56.848Z,16.35
2019-05-18T22:27:31.519Z,17.02
2019-05-18T22:30:06.586Z,17.07
2019-05-18T22:32:41.378Z,18.17
2019-05-18T22:35:16.146Z,18.35
2019-05-18T22:37:50.944Z,17.67
2019-05-18T22:40:25.642Z,15.48
2019-05-18T22:43:00.451Z,14.13
2019-05-18T22:45:35.219Z,14.53
2019-05-18T22:48:10.023Z,13.98
2019-05-18T22:50:44.791Z,14.45
2019-05-18T22:53:19.518Z,14.45
2019-05-18T22:55:54.234Z,13.70
2019-05-18T22:58:28.966Z,15.63
2019-05-18T23:01:03.719Z,18.23
2019-05-18T23:03:38.461Z,16.73
2019-05-18T23:06:13.157Z,15.53
2019-05-18T23:08:47.886Z,14.65
2019-05-18T23:11:22.582Z,14.33
2019-05-18T23:13:57.387Z,13.43
2019-05-18T23:16:32.087Z,15.10
2019-05-18T23:19:06.891Z,16.85
2019-05-18T23:21:41.589Z,15.88
2019-05-18T23:24:16.463Z,14.80
2019-05-18T23:26:51.219Z,14.40
2019-05-18T23:29:26.031Z,13.93
2019-05-18T23:32:00.670Z,13.95
2019-05-18T23:34:35.297Z,13.60
2019-05-18T23:37:10.066Z,12.73
2019-05-18T23:39:44.878Z,12.37
2019-05-18T23:42:19.578Z,11.43
2019-05-18T23:44:54.312Z,12.58
2019-05-18T23:47:29.008Z,11.60
2019-05-18T23:50:03.842Z,12.15
2019-05-18T23:52:38.606Z,10.95
2019-05-18T23:55:13.472Z,11.35
2019-05-18T23:57:48.175Z,11.80
